createdAt,value
2019-02-18T00:00:27.656Z,46.75
2019-02-18T00:02:56.013Z,55.70
2019-02-18T00:05:24.757Z,46.00
2019-02-18T00:07:53.170Z,49.90
2019-02-18T00:10:21.815Z,57.62
2019-02-18T00:12:50.518Z,53.73
2019-02-18T00:15:19.201Z,50.50
2019-02-18T00:17:47.875Z,47.98
2019-02-18T00:20:16.286Z,39.50
2019-02-18T00:22:44.675Z,45.98
2019-02-18T00:25:13.068Z,46.68
2019-02-18T00:27:41.799Z,44.93
2019-02-18T00:30:10.192Z,48.17
2019-02-18T00:32:38.868Z,57.88
2019-02-18T00:35:07.268Z,45.60
2019-02-18T00:37:35.930Z,45.75
2019-02-18T00:40:06.781Z,45.03
2019-02-18T00:42:35.558Z,52.43
2019-02-18T00:45:06.904Z,43.40
2019-02-18T00:47:35.296Z,42.67
2019-02-18T00:50:04.567Z,37.55
2019-02-18T00:52:32.990Z,42.62
2019-02-18T00:55:01.648Z,43.60
2019-02-18T00:57:30.056Z,47.78
2019-02-18T00:59:58.704Z,46.45
2019-02-18T01:02:27.413Z,38.67
2019-02-18T01:04:56.092Z,39.53
2019-02-18T01:07:34.226Z,43.80
2019-02-18T01:09:54.957Z,40.17
2019-02-18T01:12:23.689Z,48.90
2019-02-18T01:14:52.355Z,43.17
2019-02-18T01:17:20.757Z,41.70
2019-02-18T01:19:49.143Z,44.08
2019-02-18T01:22:17.798Z,41.15
2019-02-18T01:24:46.191Z,38.67
2019-02-18T01:27:14.584Z,46.02
2019-02-18T01:29:43.242Z,43.45
2019-02-18T01:32:11.926Z,37.33
2019-02-18T01:34:40.614Z,40.28
2019-02-18T01:37:09.304Z,50.25
2019-02-18T01:39:37.987Z,60.05
2019-02-18T01:42:06.687Z,38.75
2019-02-18T01:44:35.362Z,47.55
2019-02-18T01:47:04.049Z,38.20
2019-02-18T01:49:32.435Z,42.10
2019-02-18T01:52:00.865Z,44.27
2019-02-18T01:54:29.260Z,43.73
2019-02-18T01:57:17.062Z,42.00
2019-02-18T01:59:45.476Z,40.00
2019-02-18T02:02:33.204Z,45.33
2019-02-18T02:07:40.800Z,40.80
2019-02-18T02:10:49.116Z,41.70
2019-02-18T02:13:36.913Z,47.00
2019-02-18T02:16:45.491Z,58.28
2019-02-18T02:19:14.240Z,45.83
2019-02-18T02:22:01.984Z,51.15
2019-02-18T02:24:30.374Z,37.50
2019-02-18T02:26:59.100Z,46.45
2019-02-18T02:29:27.508Z,40.08
2019-02-18T02:31:56.165Z,45.33
2019-02-18T02:34:43.935Z,41.45
2019-02-18T02:37:12.580Z,40.58
2019-02-18T02:39:40.973Z,36.88
2019-02-18T02:42:09.386Z,43.10
2019-02-18T02:44:37.781Z,40.10
2019-02-18T02:47:06.514Z,44.25
2019-02-18T02:49:34.965Z,45.95
2019-02-18T02:52:03.357Z,39.42
2019-02-18T02:54:32.055Z,36.65
2019-02-18T02:57:00.469Z,39.23
2019-02-18T02:59:28.880Z,37.60
2019-02-18T03:01:57.264Z,40.45
2019-02-18T03:04:25.983Z,37.90
2019-02-18T03:06:54.378Z,45.80
2019-02-18T03:09:22.770Z,38.20
2019-02-18T03:11:51.545Z,42.95
2019-02-18T03:14:20.190Z,38.20
2019-02-18T03:16:48.585Z,48.40
2019-02-18T03:19:17.271Z,45.80
2019-02-18T03:21:45.971Z,42.33
2019-02-18T03:24:14.656Z,38.65
2019-02-18T03:26:43.331Z,50.78
2019-02-18T03:29:51.697Z,41.92
2019-02-18T03:32:20.329Z,46.58
2019-02-18T03:34:49.018Z,47.40
2019-02-18T03:37:17.714Z,41.48
2019-02-18T03:39:46.101Z,44.13
2019-02-18T03:42:14.515Z,40.30
2019-02-18T03:44:42.905Z,40.50
2019-02-18T03:47:11.296Z,44.60
2019-02-18T03:49:39.956Z,46.92
2019-02-18T03:52:08.593Z,45.30
2019-02-18T03:54:37.257Z,39.95
2019-02-18T03:57:05.900Z,49.13
2019-02-18T03:59:34.712Z,42.95
2019-02-18T04:02:03.119Z,58.80
2019-02-18T04:04:31.514Z,43.20
2019-02-18T04:07:00.161Z,49.50
2019-02-18T04:09:28.817Z,41.55
2019-02-18T04:11:57.214Z,41.88
2019-02-18T04:14:25.634Z,47.48
2019-02-18T04:16:54.021Z,41.33
2019-02-18T04:19:22.433Z,45.12
2019-02-18T04:21:50.831Z,45.70
2019-02-18T04:24:19.471Z,48.68
2019-02-18T04:26:47.870Z,49.53
2019-02-18T04:29:16.272Z,60.03
2019-02-18T04:31:44.941Z,47.33
2019-02-18T04:34:32.924Z,46.33
2019-02-18T04:37:01.337Z,46.58
2019-02-18T04:39:29.738Z,48.25
2019-02-18T04:41:58.424Z,56.02
2019-02-18T04:44:26.832Z,44.03
2019-02-18T04:46:55.483Z,47.40
2019-02-18T04:49:24.171Z,48.10
2019-02-18T04:51:52.833Z,61.13
2019-02-18T04:54:21.221Z,46.92
2019-02-18T04:56:49.921Z,45.45
2019-02-18T04:59:18.310Z,44.65
2019-02-18T05:01:46.723Z,54.50
2019-02-18T05:04:15.120Z,41.88
2019-02-18T05:06:43.514Z,54.15
2019-02-18T05:09:11.915Z,44.13
2019-02-18T05:11:40.602Z,43.63
2019-02-18T05:14:09.014Z,45.78
2019-02-18T05:16:37.414Z,54.67
2019-02-18T05:19:05.795Z,47.80
2019-02-18T05:21:34.211Z,43.15
2019-02-18T05:24:02.601Z,48.20
2019-02-18T05:26:30.997Z,45.17
2019-02-18T05:28:59.401Z,49.15
2019-02-18T05:31:28.044Z,51.28
2019-02-18T05:33:56.728Z,65.37
2019-02-18T05:36:25.414Z,49.63
2019-02-18T05:38:54.098Z,35.88
2019-02-18T05:41:22.895Z,62.27
2019-02-18T05:43:51.291Z,46.70
2019-02-18T05:46:19.688Z,50.15
2019-02-18T05:48:48.338Z,46.85
2019-02-18T05:51:17.022Z,53.00
2019-02-18T05:53:45.413Z,54.00
2019-02-18T05:56:14.083Z,44.10
2019-02-18T05:58:42.771Z,41.80
2019-02-18T06:01:11.165Z,47.73
2019-02-18T06:03:39.832Z,42.30
2019-02-18T06:06:08.236Z,44.30
2019-02-18T06:08:36.626Z,45.33
2019-02-18T06:11:05.017Z,47.25
2019-02-18T06:13:33.426Z,45.67
2019-02-18T06:16:01.814Z,53.65
2019-02-18T06:18:30.202Z,44.50
2019-02-18T06:20:58.892Z,43.65
2019-02-18T06:23:27.318Z,44.33
2019-02-18T06:25:55.704Z,44.98
2019-02-18T06:28:24.108Z,41.92
2019-02-18T06:30:54.875Z,43.52
2019-02-18T06:33:22.938Z,44.50
2019-02-18T06:35:52.133Z,50.23
2019-02-18T06:38:20.924Z,46.58
2019-02-18T06:40:49.621Z,47.40
2019-02-18T06:43:18.167Z,50.70
2019-02-18T06:45:48.212Z,50.75
2019-02-18T06:48:24.091Z,52.20
2019-02-18T06:50:52.480Z,46.33
2019-02-18T06:53:20.879Z,43.23
2019-02-18T06:55:49.622Z,48.83
2019-02-18T06:58:19.672Z,40.90
2019-02-18T07:01:01.956Z,40.90
2019-02-18T07:03:32.259Z,52.50
2019-02-18T07:06:05.654Z,45.43
2019-02-18T07:08:42.120Z,46.83
2019-02-18T07:11:12.468Z,42.73
2019-02-18T07:13:40.895Z,40.45
2019-02-18T07:16:09.732Z,46.65
2019-02-18T07:18:38.405Z,46.40
2019-02-18T07:21:07.063Z,42.13
2019-02-18T07:23:35.462Z,46.77
2019-02-18T07:26:04.090Z,52.13
2019-02-18T07:28:32.528Z,48.15
2019-02-18T07:31:01.227Z,47.40
2019-02-18T07:33:29.638Z,46.65
2019-02-18T07:35:58.063Z,47.48
2019-02-18T07:38:26.489Z,43.78
2019-02-18T07:40:55.357Z,44.27
2019-02-18T07:43:23.793Z,44.58
2019-02-18T07:45:52.192Z,40.25
2019-02-18T07:48:20.603Z,46.35
2019-02-18T07:50:48.993Z,50.73
2019-02-18T07:53:17.644Z,45.78
2019-02-18T07:55:46.104Z,55.48
2019-02-18T07:58:14.501Z,43.85
2019-02-18T08:00:42.890Z,40.90
2019-02-18T08:03:11.342Z,51.90
2019-02-18T08:05:39.745Z,39.88
2019-02-18T08:08:08.444Z,52.98
2019-02-18T08:10:36.852Z,50.48
2019-02-18T08:13:05.501Z,48.25
2019-02-18T08:15:34.179Z,44.45
2019-02-18T08:18:02.872Z,45.90
2019-02-18T08:20:31.565Z,61.45
2019-02-18T08:23:00.251Z,57.50
2019-02-18T08:25:28.928Z,44.65
2019-02-18T08:27:57.611Z,49.48
2019-02-18T08:30:26.097Z,44.23
2019-02-18T08:32:54.775Z,45.55
2019-02-18T08:35:23.464Z,46.28
2019-02-18T08:37:51.856Z,47.10
2019-02-18T08:40:22.670Z,51.40
2019-02-18T08:42:50.959Z,50.67
2019-02-18T08:45:19.361Z,46.85
2019-02-18T08:47:47.771Z,56.85
2019-02-18T08:50:16.500Z,49.95
2019-02-18T08:52:45.190Z,40.63
2019-02-18T08:55:14.260Z,44.60
2019-02-18T08:57:42.973Z,45.88
2019-02-18T09:00:16.361Z,49.80
2019-02-18T09:02:45.067Z,43.13
2019-02-18T09:05:13.844Z,40.98
2019-02-18T09:07:42.309Z,48.87
2019-02-18T09:10:14.603Z,46.70
2019-02-18T09:12:43.118Z,54.55
2019-02-18T09:15:14.138Z,47.70
2019-02-18T09:17:42.136Z,41.37
2019-02-18T09:20:11.066Z,43.83
2019-02-18T09:22:57.579Z,59.18
2019-02-18T09:25:39.697Z,47.85
2019-02-18T09:28:08.376Z,51.73
2019-02-18T09:30:38.693Z,53.17
2019-02-18T09:33:07.339Z,52.43
2019-02-18T09:35:36.065Z,53.17
2019-02-18T09:38:04.577Z,42.60
2019-02-18T09:40:43.958Z,57.10
2019-02-18T09:43:03.148Z,47.37
2019-02-18T09:45:31.552Z,47.88
2019-02-18T09:48:00.207Z,54.18
2019-02-18T09:50:28.614Z,53.43
2019-02-18T09:52:57.011Z,46.83
2019-02-18T09:55:25.409Z,45.23
2019-02-18T09:57:53.802Z,41.50
2019-02-18T10:00:22.205Z,42.40
2019-02-18T10:02:50.644Z,53.37
2019-02-18T10:05:19.077Z,63.63
2019-02-18T10:07:47.474Z,41.80
2019-02-18T10:10:15.863Z,49.40
2019-02-18T10:12:44.621Z,50.67
2019-02-18T10:15:13.397Z,54.73
2019-02-18T10:17:42.128Z,41.80
2019-02-18T10:20:12.925Z,55.77
2019-02-18T10:22:41.314Z,43.13
2019-02-18T10:25:14.007Z,50.27
2019-02-18T10:27:42.429Z,45.90
2019-02-18T10:30:11.894Z,48.80
2019-02-18T10:32:40.283Z,39.87
2019-02-18T10:35:15.683Z,52.33
2019-02-18T10:37:44.376Z,47.70
2019-02-18T10:40:13.162Z,54.63
2019-02-18T10:42:41.827Z,46.03
2019-02-18T10:45:29.548Z,61.13
2019-02-18T10:47:58.242Z,53.83
2019-02-18T10:50:26.944Z,45.20
2019-02-18T10:52:55.352Z,46.00
2019-02-18T10:55:24.001Z,53.47
2019-02-18T10:57:52.386Z,52.33
2019-02-18T11:00:20.792Z,42.97
2019-02-18T11:02:49.465Z,52.47
2019-02-18T11:05:18.130Z,59.70
2019-02-18T11:07:46.533Z,47.03
2019-02-18T11:10:55.099Z,49.23
2019-02-18T11:13:23.822Z,49.27
2019-02-18T11:15:52.509Z,52.80
2019-02-18T11:18:20.914Z,47.90
2019-02-18T11:20:49.300Z,47.63
2019-02-18T11:23:17.706Z,50.67
2019-02-18T11:25:48.066Z,41.20
2019-02-18T11:28:16.454Z,44.17
2019-02-18T11:31:04.440Z,45.60
2019-02-18T11:33:32.853Z,46.10
2019-02-18T11:36:02.991Z,39.87
2019-02-18T11:38:31.664Z,38.30
2019-02-18T11:41:00.060Z,42.60
2019-02-18T11:43:28.758Z,35.50
2019-02-18T11:45:57.148Z,33.47
2019-02-18T11:48:25.820Z,41.90
2019-02-18T11:50:54.594Z,34.50
2019-02-18T11:53:23.005Z,29.40
2019-02-18T11:55:51.393Z,29.77
2019-02-18T11:58:20.053Z,35.30
2019-02-18T12:00:48.739Z,31.90
2019-02-18T12:03:17.144Z,35.50
2019-02-18T12:05:46.108Z,34.20
2019-02-18T12:08:14.796Z,37.97
2019-02-18T12:10:43.483Z,29.30
2019-02-18T12:13:12.166Z,32.73
2019-02-18T12:15:40.869Z,33.40
2019-02-18T12:18:09.541Z,40.80
2019-02-18T12:20:38.168Z,34.67
2019-02-18T12:23:06.748Z,30.40
2019-02-18T12:25:35.497Z,33.00
2019-02-18T12:28:04.028Z,34.37
2019-02-18T12:30:32.778Z,33.70
2019-02-18T12:33:01.453Z,39.67
2019-02-18T12:35:31.224Z,35.50
2019-02-18T12:38:00.278Z,33.43
2019-02-18T12:40:28.668Z,39.50
2019-02-18T12:42:57.076Z,32.40
2019-02-18T12:45:25.472Z,35.30
2019-02-18T12:47:53.956Z,34.87
2019-02-18T12:50:22.669Z,25.63
2019-02-18T12:52:51.104Z,34.10
2019-02-18T12:55:19.565Z,33.97
2019-02-18T12:57:47.978Z,29.27
2019-02-18T13:00:17.238Z,31.17
2019-02-18T13:02:45.779Z,31.53
2019-02-18T13:05:14.695Z,23.27
2019-02-18T13:07:43.139Z,30.33
2019-02-18T13:10:12.413Z,34.27
2019-02-18T13:12:41.257Z,39.83
2019-02-18T13:15:17.869Z,24.10
2019-02-18T13:17:46.705Z,23.53
2019-02-18T13:20:15.128Z,25.33
2019-02-18T13:22:43.643Z,27.73
2019-02-18T13:25:12.097Z,31.60
2019-02-18T13:27:40.488Z,38.73
2019-02-18T13:30:11.785Z,27.37
2019-02-18T13:32:40.254Z,28.53
2019-02-18T13:35:08.661Z,29.00
2019-02-18T13:37:37.325Z,28.13
2019-02-18T13:40:06.523Z,28.53
2019-02-18T13:42:34.926Z,35.03
2019-02-18T13:45:04.301Z,37.47
2019-02-18T13:47:32.703Z,32.27
2019-02-18T13:50:01.165Z,28.80
2019-02-18T13:52:29.569Z,28.13
2019-02-18T13:54:58.031Z,32.70
2019-02-18T13:57:26.809Z,28.20
2019-02-18T13:59:55.586Z,30.60
2019-02-18T14:02:23.978Z,26.90
2019-02-18T14:04:52.372Z,22.17
2019-02-18T14:07:20.769Z,28.60
2019-02-18T14:09:49.524Z,27.13
2019-02-18T14:12:18.204Z,31.93
2019-02-18T14:14:46.892Z,26.27
2019-02-18T14:17:15.540Z,23.90
2019-02-18T14:19:44.261Z,28.77
2019-02-18T14:22:13.030Z,26.47
2019-02-18T14:24:41.422Z,37.30
2019-02-18T14:27:10.119Z,29.30
2019-02-18T14:29:38.523Z,25.97
2019-02-18T14:32:07.261Z,24.90
2019-02-18T14:34:35.648Z,33.30
2019-02-18T14:37:04.054Z,28.73
2019-02-18T14:39:32.850Z,26.67
2019-02-18T14:42:01.380Z,30.70
2019-02-18T14:44:29.836Z,30.97
2019-02-18T14:46:58.540Z,28.23
2019-02-18T14:49:26.929Z,28.70
2019-02-18T14:51:55.556Z,26.80
2019-02-18T14:54:24.396Z,33.53
2019-02-18T14:56:53.020Z,26.80
2019-02-18T14:59:21.489Z,33.63
2019-02-18T15:01:49.952Z,34.57
2019-02-18T15:04:18.717Z,37.30
2019-02-18T15:06:47.969Z,29.30
2019-02-18T15:09:16.432Z,32.97
2019-02-18T15:11:45.132Z,26.63
2019-02-18T15:14:13.523Z,30.87
2019-02-18T15:16:41.926Z,31.20
2019-02-18T15:19:10.709Z,39.03
2019-02-18T15:21:39.482Z,42.23
2019-02-18T15:24:08.153Z,32.00
2019-02-18T15:26:36.610Z,33.80
2019-02-18T15:29:05.424Z,33.83
2019-02-18T15:31:34.114Z,38.03
2019-02-18T15:34:02.504Z,34.30
2019-02-18T15:36:30.916Z,35.87
2019-02-18T15:38:59.362Z,33.07
2019-02-18T15:41:27.818Z,28.90
2019-02-18T15:43:56.222Z,39.10
2019-02-18T15:46:24.844Z,37.30
2019-02-18T15:48:53.245Z,36.80
2019-02-18T15:51:21.914Z,51.80
2019-02-18T15:53:50.640Z,37.20
2019-02-18T15:56:19.109Z,41.93
2019-02-18T15:58:47.499Z,41.33
2019-02-18T16:01:15.898Z,38.40
2019-02-18T16:03:44.290Z,54.43
2019-02-18T16:06:13.025Z,47.80
2019-02-18T16:08:41.438Z,54.23
2019-02-18T16:11:09.847Z,57.13
2019-02-18T16:13:38.263Z,53.97
2019-02-18T16:16:06.977Z,62.87
2019-02-18T16:18:35.662Z,61.90
2019-02-18T16:21:04.347Z,67.17
2019-02-18T16:23:32.922Z,64.73
2019-02-18T16:26:01.319Z,56.90
2019-02-18T16:28:29.993Z,67.63
2019-02-18T16:30:58.398Z,62.57
2019-02-18T16:33:27.055Z,76.27
2019-02-18T16:35:55.697Z,80.00
2019-02-18T16:38:24.435Z,47.90
2019-02-18T16:40:52.843Z,72.87
2019-02-18T16:43:21.901Z,52.97
2019-02-18T16:45:50.295Z,63.00
2019-02-18T16:48:18.958Z,55.83
2019-02-18T16:50:47.652Z,57.93
2019-02-18T16:53:16.644Z,71.63
2019-02-18T16:55:45.068Z,67.00
2019-02-18T16:58:13.705Z,58.03
2019-02-18T17:00:42.501Z,52.73
2019-02-18T17:03:11.190Z,72.00
2019-02-18T17:05:39.981Z,73.57
2019-02-18T17:08:08.661Z,66.30
2019-02-18T17:10:37.458Z,88.70
2019-02-18T17:13:08.421Z,93.13
2019-02-18T17:15:36.265Z,71.10
2019-02-18T17:18:04.896Z,69.83
2019-02-18T17:20:33.622Z,69.50
2019-02-18T17:23:02.256Z,95.83
2019-02-18T17:25:31.332Z,94.30
2019-02-18T17:27:59.713Z,83.97
2019-02-18T17:30:28.111Z,83.90
2019-02-18T17:32:56.500Z,73.80
2019-02-18T17:35:25.242Z,97.50
2019-02-18T17:37:53.934Z,77.13
2019-02-18T17:40:22.708Z,100.50
2019-02-18T17:42:51.106Z,80.30
2019-02-18T17:45:19.824Z,75.93
2019-02-18T17:47:48.224Z,63.37
2019-02-18T17:50:56.515Z,92.60
2019-02-18T17:53:25.192Z,57.60
2019-02-18T17:55:53.586Z,52.03
2019-02-18T17:58:41.551Z,47.00
2019-02-18T18:01:10.113Z,53.53
2019-02-18T18:03:38.730Z,63.03
2019-02-18T18:06:07.124Z,52.00
2019-02-18T18:08:35.753Z,41.67
2019-02-18T18:11:04.222Z,48.23
2019-02-18T18:13:32.902Z,45.50
2019-02-18T18:16:03.085Z,35.60
2019-02-18T18:18:31.812Z,36.57
2019-02-18T18:21:00.195Z,56.63
2019-02-18T18:23:28.591Z,53.03
2019-02-18T18:25:56.986Z,61.23
2019-02-18T18:28:25.716Z,47.57
2019-02-18T18:30:54.105Z,80.33
2019-02-18T18:33:22.777Z,50.80
2019-02-18T18:35:51.175Z,51.80
2019-02-18T18:38:19.560Z,54.63
2019-02-18T18:40:47.958Z,67.00
2019-02-18T18:43:16.604Z,60.77
2019-02-18T18:45:45.004Z,46.53
2019-02-18T18:48:13.388Z,46.77
2019-02-18T18:50:42.049Z,63.57
2019-02-18T18:53:10.426Z,69.43
2019-02-18T18:55:39.108Z,57.77
2019-02-18T18:58:07.510Z,41.23
2019-02-18T19:00:36.171Z,53.67
2019-02-18T19:03:06.297Z,41.73
2019-02-18T19:05:34.924Z,62.07
2019-02-18T19:08:03.332Z,35.07
2019-02-18T19:10:31.710Z,57.20
2019-02-18T19:13:00.099Z,49.67
2019-02-18T19:15:28.738Z,46.10
2019-02-18T19:17:58.838Z,45.50
2019-02-18T19:20:27.504Z,45.33
2019-02-18T19:22:55.928Z,40.50
2019-02-18T19:25:24.390Z,39.60
2019-02-18T19:27:52.782Z,43.07
2019-02-18T19:30:40.507Z,68.33
2019-02-18T19:33:08.891Z,64.43
2019-02-18T19:35:37.287Z,49.63
2019-02-18T19:38:05.670Z,47.60
2019-02-18T19:40:34.055Z,73.67
2019-02-18T19:43:02.487Z,40.88
2019-02-18T19:45:30.924Z,60.67
2019-02-18T19:47:59.618Z,48.87
2019-02-18T19:50:28.306Z,53.70
2019-02-18T19:52:57.003Z,60.30
2019-02-18T19:55:25.573Z,45.80
2019-02-18T19:57:55.796Z,54.37
2019-02-18T20:00:24.191Z,62.43
2019-02-18T20:02:52.877Z,39.30
2019-02-18T20:05:21.546Z,38.80
2019-02-18T20:07:50.340Z,40.80
2019-02-18T20:10:19.035Z,50.30
2019-02-18T20:12:47.668Z,49.13
2019-02-18T20:15:56.342Z,51.48
2019-02-18T20:18:25.036Z,51.80
2019-02-18T20:20:55.471Z,48.50
2019-02-18T20:23:24.128Z,62.45
2019-02-18T20:25:52.810Z,63.10
2019-02-18T20:28:40.957Z,63.35
2019-02-18T20:31:11.395Z,56.23
2019-02-18T20:33:40.067Z,47.90
2019-02-18T20:36:08.723Z,42.55
2019-02-18T20:38:37.444Z,41.93
2019-02-18T20:41:05.953Z,42.70
2019-02-18T20:43:34.343Z,41.18
2019-02-18T20:46:03.098Z,39.18
2019-02-18T20:48:31.487Z,44.00
2019-02-18T20:50:59.885Z,37.53
2019-02-18T20:53:28.532Z,42.67
2019-02-18T20:55:56.949Z,48.75
2019-02-18T20:58:25.339Z,46.83
2019-02-18T21:00:53.896Z,54.95
2019-02-18T21:03:22.289Z,109.22
2019-02-18T21:05:50.919Z,48.73
2019-02-18T21:08:19.320Z,50.30
2019-02-18T21:10:47.747Z,49.03
2019-02-18T21:13:16.148Z,50.43
2019-02-18T21:15:44.539Z,58.68
2019-02-18T21:18:15.187Z,72.30
2019-02-18T21:21:03.256Z,68.35
2019-02-18T21:23:31.668Z,64.70
2019-02-18T21:26:00.059Z,67.37
2019-02-18T21:28:28.683Z,77.67
2019-02-18T21:30:57.087Z,72.62
2019-02-18T21:33:25.735Z,95.83
2019-02-18T21:35:54.175Z,65.57
2019-02-18T21:38:22.572Z,116.33
2019-02-18T21:40:50.979Z,69.22
2019-02-18T21:43:19.659Z,52.27
2019-02-18T21:45:48.282Z,55.75
2019-02-18T21:48:16.713Z,72.17
2019-02-18T21:50:45.424Z,67.58
2019-02-18T21:53:13.929Z,84.37
2019-02-18T21:55:42.575Z,51.98
2019-02-18T21:58:11.263Z,54.30
2019-02-18T22:00:39.928Z,61.30
2019-02-18T22:03:08.321Z,57.78
2019-02-18T22:05:37.011Z,55.28
2019-02-18T22:08:05.707Z,52.03
2019-02-18T22:10:34.102Z,64.67
2019-02-18T22:13:02.490Z,47.93
2019-02-18T22:15:30.898Z,67.90
2019-02-18T22:17:59.532Z,51.83
2019-02-18T22:20:27.911Z,62.53
2019-02-18T22:22:56.611Z,46.77
2019-02-18T22:25:25.271Z,46.53
2019-02-18T22:27:53.982Z,51.45
2019-02-18T22:30:22.384Z,51.50
2019-02-18T22:32:50.807Z,47.70
2019-02-18T22:35:19.279Z,61.13
2019-02-18T22:37:47.691Z,81.70
2019-02-18T22:40:16.206Z,93.45
2019-02-18T22:42:44.973Z,78.28
2019-02-18T22:45:53.314Z,105.00
2019-02-18T22:48:21.947Z,97.67
2019-02-18T22:51:09.684Z,99.13
2019-02-18T22:53:57.762Z,59.10
2019-02-18T22:56:26.418Z,77.67
2019-02-18T22:58:54.809Z,107.83
2019-02-18T23:02:03.120Z,78.67
2019-02-18T23:04:31.783Z,85.17
2019-02-18T23:07:00.212Z,98.62
2019-02-18T23:09:28.671Z,79.05
2019-02-18T23:11:57.065Z,70.90
2019-02-18T23:14:27.451Z,67.58
2019-02-18T23:16:56.134Z,98.22
2019-02-18T23:19:24.535Z,77.17
2019-02-18T23:21:53.199Z,65.20
2019-02-18T23:24:21.886Z,76.20
2019-02-18T23:26:50.277Z,58.63
2019-02-18T23:29:18.954Z,63.17
2019-02-18T23:31:49.087Z,59.40
2019-02-18T23:34:17.471Z,74.03
2019-02-18T23:36:45.885Z,67.35
2019-02-18T23:39:14.562Z,63.00
2019-02-18T23:41:42.979Z,66.75
2019-02-18T23:44:30.781Z,64.25
2019-02-18T23:46:59.459Z,67.10
2019-02-18T23:49:27.861Z,99.10
2019-02-18T23:51:56.255Z,112.32
2019-02-18T23:54:25.010Z,118.08
2019-02-18T23:56:53.409Z,151.42
2019-02-18T23:59:21.817Z,98.27
